GLV1276 SBGL-SBVT
Flight info
| Callsign | GLV1276 |
|---|---|
| Flight time | 1h 3m |
| Altitude | 34000 |
| Route | TISVA UL206 TODET |
| Aircraft | B738/M-SDE2E3FGHIRWXY/LB1 |
Departure
| Time | 2026-04-21 16:18 |
|---|---|
| Airport | Rio Galeão – Tom Jobim International Airport (SBGL) |
Arrival
| Time | 2026-04-21 17:21 |
|---|---|
| Airport | Eurico de Aguiar Salles International Airport (SBVT) |
| Time | Latitude | Longitude | Altitude | Speed | Heading |
|---|---|---|---|---|---|
| 2026-04-21 15:59 | -22.81090 | -43.25348 | 31 ft | 0 kts | 74° |
| 2026-04-21 16:02 | -22.81091 | -43.25351 | 31 ft | 2 kts | 75° |
| 2026-04-21 16:02 | -22.81095 | -43.25367 | 31 ft | 2 kts | 76° |
| 2026-04-21 16:02 | -22.81098 | -43.25382 | 31 ft | 2 kts | 76° |
| 2026-04-21 16:02 | -22.81102 | -43.25398 | 31 ft | 2 kts | 76° |
| 2026-04-21 16:03 | -22.81105 | -43.25413 | 31 ft | 2 kts | 75° |
| 2026-04-21 16:03 | -22.81108 | -43.25423 | 30 ft | 0 kts | 73° |
| 2026-04-21 16:03 | -22.81115 | -43.25437 | 30 ft | 2 kts | 37° |
| 2026-04-21 16:03 | -22.81129 | -43.25443 | 30 ft | 2 kts | 360° |
| 2026-04-21 16:04 | -22.81135 | -43.25442 | 30 ft | 1 kts | 340° |
| 2026-04-21 16:04 | -22.81140 | -43.25441 | 30 ft | 0 kts | 345° |
| 2026-04-21 16:06 | -22.81138 | -43.25441 | 30 ft | 0 kts | 345° |
| 2026-04-21 16:06 | -22.81136 | -43.25442 | 30 ft | 0 kts | 345° |
| 2026-04-21 16:06 | -22.81125 | -43.25445 | 30 ft | 3 kts | 345° |
| 2026-04-21 16:07 | -22.81093 | -43.25452 | 30 ft | 6 kts | 353° |
| 2026-04-21 16:07 | -22.81040 | -43.25454 | 30 ft | 9 kts | 3° |
| 2026-04-21 16:07 | -22.80973 | -43.25450 | 29 ft | 9 kts | 340° |
| 2026-04-21 16:07 | -22.80933 | -43.25510 | 29 ft | 10 kts | 294° |
| 2026-04-21 16:08 | -22.80867 | -43.25626 | 29 ft | 9 kts | 311° |
| 2026-04-21 16:08 | -22.80830 | -43.25682 | 29 ft | 9 kts | 301° |
| 2026-04-21 16:08 | -22.80782 | -43.25708 | 29 ft | 7 kts | 20° |
| 2026-04-21 16:09 | -22.80738 | -43.25680 | 29 ft | 7 kts | 33° |
| 2026-04-21 16:09 | -22.80700 | -43.25651 | 29 ft | 6 kts | 36° |
| 2026-04-21 16:09 | -22.80660 | -43.25621 | 28 ft | 7 kts | 34° |
| 2026-04-21 16:09 | -22.80614 | -43.25587 | 27 ft | 8 kts | 35° |
| 2026-04-21 16:10 | -22.80564 | -43.25559 | 27 ft | 7 kts | 3° |
| 2026-04-21 16:10 | -22.80523 | -43.25574 | 27 ft | 5 kts | 329° |
| 2026-04-21 16:10 | -22.80495 | -43.25596 | 27 ft | 4 kts | 324° |
| 2026-04-21 16:10 | -22.80472 | -43.25614 | 28 ft | 3 kts | 324° |
| 2026-04-21 16:11 | -22.80454 | -43.25626 | 28 ft | 2 kts | 328° |
| 2026-04-21 16:11 | -22.80435 | -43.25638 | 28 ft | 3 kts | 337° |
| 2026-04-21 16:11 | -22.80407 | -43.25641 | 28 ft | 4 kts | 12° |
| 2026-04-21 16:11 | -22.80374 | -43.25622 | 28 ft | 5 kts | 34° |
| 2026-04-21 16:12 | -22.80357 | -43.25609 | 28 ft | 2 kts | 36° |
| 2026-04-21 16:14 | -22.80355 | -43.25607 | 28 ft | 0 kts | 36° |
| 2026-04-21 16:14 | -22.80353 | -43.25606 | 28 ft | 0 kts | 36° |
| 2026-04-21 16:14 | -22.80348 | -43.25602 | 28 ft | 1 kts | 36° |
| 2026-04-21 16:15 | -22.80334 | -43.25590 | 27 ft | 4 kts | 36° |
| 2026-04-21 16:15 | -22.80299 | -43.25561 | 26 ft | 8 kts | 39° |
| 2026-04-21 16:15 | -22.80257 | -43.25525 | 26 ft | 7 kts | 36° |
| 2026-04-21 16:15 | -22.80223 | -43.25506 | 26 ft | 4 kts | 8° |
| 2026-04-21 16:16 | -22.80199 | -43.25500 | 26 ft | 2 kts | 20° |
| 2026-04-21 16:16 | -22.80186 | -43.25489 | 26 ft | 2 kts | 47° |
| 2026-04-21 16:16 | -22.80171 | -43.25457 | 26 ft | 8 kts | 72° |
| 2026-04-21 16:16 | -22.80131 | -43.25274 | 26 ft | 52 kts | 77° |
| 2026-04-21 16:17 | -22.79974 | -43.24676 | 26 ft | 112 kts | 73° |
| 2026-04-21 16:17 | -22.79704 | -43.23661 | 26 ft | 165 kts | 77° |
| 2026-04-21 16:17 | -22.79397 | -43.22345 | 176 ft | 192 kts | 78° |
| 2026-04-21 16:17 | -22.79061 | -43.20900 | 492 ft | 207 kts | 78° |
| 2026-04-21 16:18 | -22.78699 | -43.19282 | 758 ft | 235 kts | 78° |
| 2026-04-21 16:18 | -22.78567 | -43.18695 | 915 ft | 243 kts | 78° |
| 2026-04-21 16:18 | -22.78165 | -43.16866 | 1413 ft | 256 kts | 79° |
| 2026-04-21 16:19 | -22.76685 | -43.09869 | 3258 ft | 257 kts | 78° |
| 2026-04-21 16:19 | -22.76286 | -43.07962 | 3766 ft | 261 kts | 77° |
| 2026-04-21 16:19 | -22.75881 | -43.06054 | 4264 ft | 263 kts | 77° |
| 2026-04-21 16:20 | -22.75470 | -43.04118 | 4765 ft | 265 kts | 77° |
| 2026-04-21 16:20 | -22.75056 | -43.02166 | 5268 ft | 267 kts | 77° |
| 2026-04-21 16:20 | -22.74639 | -43.00212 | 5766 ft | 270 kts | 77° |
| 2026-04-21 16:20 | -22.74221 | -42.98260 | 6259 ft | 272 kts | 77° |
| 2026-04-21 16:21 | -22.73794 | -42.96258 | 6759 ft | 275 kts | 77° |
| 2026-04-21 16:21 | -22.73362 | -42.94240 | 7260 ft | 277 kts | 77° |
| 2026-04-21 16:21 | -22.72927 | -42.92204 | 7761 ft | 279 kts | 77° |
| 2026-04-21 16:21 | -22.72487 | -42.90153 | 8262 ft | 281 kts | 77° |
| 2026-04-21 16:22 | -22.72047 | -42.88095 | 8761 ft | 283 kts | 77° |
| 2026-04-21 16:22 | -22.71599 | -42.86005 | 9264 ft | 286 kts | 77° |
| 2026-04-21 16:22 | -22.71148 | -42.83908 | 9764 ft | 288 kts | 77° |
| 2026-04-21 16:22 | -22.70688 | -42.81774 | 10261 ft | 292 kts | 77° |
| 2026-04-21 16:23 | -22.70216 | -42.79581 | 10424 ft | 315 kts | 77° |
| 2026-04-21 16:23 | -22.69699 | -42.77180 | 10704 ft | 333 kts | 77° |
| 2026-04-21 16:23 | -22.69167 | -42.74708 | 11323 ft | 339 kts | 77° |
| 2026-04-21 16:23 | -22.68632 | -42.72225 | 12000 ft | 343 kts | 77° |
| 2026-04-21 16:24 | -22.68091 | -42.69716 | 12688 ft | 346 kts | 77° |
| 2026-04-21 16:24 | -22.67547 | -42.67191 | 13377 ft | 349 kts | 77° |
| 2026-04-21 16:24 | -22.66991 | -42.64618 | 14058 ft | 352 kts | 77° |
| 2026-04-21 16:24 | -22.66430 | -42.62018 | 14748 ft | 355 kts | 77° |
| 2026-04-21 16:25 | -22.65867 | -42.59417 | 15415 ft | 359 kts | 77° |
| 2026-04-21 16:25 | -22.65303 | -42.56810 | 16071 ft | 362 kts | 76° |
| 2026-04-21 16:25 | -22.64723 | -42.54127 | 16706 ft | 365 kts | 76° |
| 2026-04-21 16:25 | -22.64530 | -42.53240 | 16913 ft | 366 kts | 76° |
| 2026-04-21 16:26 | -22.63554 | -42.48739 | 17933 ft | 372 kts | 76° |
| 2026-04-21 16:26 | -22.62968 | -42.46037 | 18511 ft | 375 kts | 76° |
| 2026-04-21 16:26 | -22.62369 | -42.43280 | 19089 ft | 378 kts | 76° |
| 2026-04-21 16:26 | -22.61766 | -42.40499 | 19644 ft | 382 kts | 76° |
| 2026-04-21 16:27 | -22.61153 | -42.37676 | 20196 ft | 385 kts | 76° |
| 2026-04-21 16:27 | -22.60539 | -42.34849 | 20730 ft | 388 kts | 76° |
| 2026-04-21 16:27 | -22.59911 | -42.32023 | 21235 ft | 391 kts | 73° |
| 2026-04-21 16:27 | -22.59020 | -42.29232 | 21736 ft | 393 kts | 66° |
| 2026-04-21 16:28 | -22.57817 | -42.26601 | 22224 ft | 395 kts | 59° |
| 2026-04-21 16:28 | -22.56297 | -42.24110 | 22697 ft | 398 kts | 52° |
| 2026-04-21 16:28 | -22.54499 | -42.21826 | 23167 ft | 400 kts | 45° |
| 2026-04-21 16:28 | -22.52488 | -42.19796 | 23617 ft | 402 kts | 40° |
| 2026-04-21 16:29 | -22.51065 | -42.18482 | 23920 ft | 403 kts | 39° |
| 2026-04-21 16:29 | -22.48197 | -42.15884 | 24075 ft | 410 kts | 39° |
| 2026-04-21 16:29 | -22.45989 | -42.13893 | 24073 ft | 411 kts | 39° |
| 2026-04-21 16:29 | -22.43812 | -42.11931 | 24072 ft | 408 kts | 39° |
| 2026-04-21 16:30 | -22.41638 | -42.09974 | 24074 ft | 407 kts | 39° |
| 2026-04-21 16:30 | -22.39479 | -42.08031 | 24074 ft | 407 kts | 39° |
| 2026-04-21 16:30 | -22.37290 | -42.06063 | 24075 ft | 408 kts | 39° |
| 2026-04-21 16:30 | -22.35108 | -42.04101 | 24074 ft | 409 kts | 39° |
| 2026-04-21 16:31 | -22.32939 | -42.02152 | 24074 ft | 409 kts | 39° |
| 2026-04-21 16:31 | -22.30755 | -42.00189 | 24074 ft | 408 kts | 39° |
| 2026-04-21 16:31 | -22.28598 | -41.98253 | 24073 ft | 408 kts | 39° |
| 2026-04-21 16:31 | -22.26403 | -41.96283 | 24072 ft | 408 kts | 39° |
| 2026-04-21 16:32 | -22.24235 | -41.94338 | 24069 ft | 408 kts | 39° |
| 2026-04-21 16:32 | -22.22766 | -41.93020 | 24067 ft | 409 kts | 39° |
| 2026-04-21 16:32 | -22.20588 | -41.91068 | 24062 ft | 409 kts | 39° |
| 2026-04-21 16:32 | -22.17689 | -41.88470 | 24057 ft | 409 kts | 39° |
| 2026-04-21 16:33 | -22.15507 | -41.86516 | 24054 ft | 409 kts | 39° |
| 2026-04-21 16:33 | -22.13356 | -41.84591 | 24051 ft | 409 kts | 39° |
| 2026-04-21 16:33 | -22.11216 | -41.82680 | 24049 ft | 409 kts | 39° |
| 2026-04-21 16:33 | -22.09049 | -41.80749 | 24048 ft | 409 kts | 39° |
| 2026-04-21 16:34 | -22.06901 | -41.78833 | 24047 ft | 409 kts | 39° |
| 2026-04-21 16:34 | -22.04803 | -41.76962 | 24047 ft | 409 kts | 39° |
| 2026-04-21 16:34 | -22.02669 | -41.75058 | 24047 ft | 409 kts | 39° |
| 2026-04-21 16:34 | -22.00529 | -41.73148 | 24047 ft | 409 kts | 39° |
| 2026-04-21 16:35 | -21.98362 | -41.71215 | 24047 ft | 409 kts | 39° |
| 2026-04-21 16:35 | -21.96182 | -41.69270 | 24047 ft | 409 kts | 39° |
| 2026-04-21 16:35 | -21.94022 | -41.67344 | 24047 ft | 409 kts | 39° |
| 2026-04-21 16:35 | -21.91863 | -41.65423 | 24047 ft | 409 kts | 39° |
| 2026-04-21 16:36 | -21.89731 | -41.63527 | 24047 ft | 409 kts | 39° |
| 2026-04-21 16:36 | -21.87607 | -41.61637 | 24047 ft | 409 kts | 39° |
| 2026-04-21 16:36 | -21.85495 | -41.59759 | 24047 ft | 409 kts | 39° |
| 2026-04-21 16:36 | -21.83411 | -41.57906 | 24047 ft | 409 kts | 39° |
| 2026-04-21 16:37 | -21.82140 | -41.56775 | 24047 ft | 409 kts | 39° |
| 2026-04-21 16:37 | -21.79963 | -41.54840 | 24048 ft | 409 kts | 39° |
| 2026-04-21 16:37 | -21.77860 | -41.52970 | 24047 ft | 409 kts | 39° |
| 2026-04-21 16:38 | -21.75689 | -41.51042 | 24047 ft | 409 kts | 39° |
| 2026-04-21 16:38 | -21.73542 | -41.49134 | 24047 ft | 409 kts | 39° |
| 2026-04-21 16:38 | -21.71350 | -41.47188 | 24047 ft | 409 kts | 39° |
| 2026-04-21 16:38 | -21.69203 | -41.45282 | 24047 ft | 409 kts | 39° |
| 2026-04-21 16:39 | -21.67043 | -41.43366 | 24047 ft | 409 kts | 39° |
| 2026-04-21 16:39 | -21.66729 | -41.43087 | 24047 ft | 409 kts | 39° |
| 2026-04-21 16:40 | -21.65640 | -41.42121 | 24047 ft | 409 kts | 39° |
| 2026-04-21 16:40 | -21.64904 | -41.41468 | 24047 ft | 409 kts | 39° |
| 2026-04-21 16:41 | -21.64678 | -41.41267 | 24047 ft | 409 kts | 39° |
| 2026-04-21 16:41 | -21.62508 | -41.39347 | 24047 ft | 409 kts | 39° |
| 2026-04-21 16:42 | -21.60359 | -41.37446 | 24047 ft | 409 kts | 39° |
| 2026-04-21 16:42 | -21.58190 | -41.35528 | 24047 ft | 409 kts | 39° |
| 2026-04-21 16:42 | -21.56061 | -41.33644 | 24047 ft | 409 kts | 38° |
| 2026-04-21 16:42 | -21.53901 | -41.31734 | 24047 ft | 409 kts | 38° |
| 2026-04-21 16:43 | -21.51754 | -41.29834 | 24047 ft | 409 kts | 38° |
| 2026-04-21 16:43 | -21.49629 | -41.27955 | 24047 ft | 409 kts | 38° |
| 2026-04-21 16:43 | -21.47467 | -41.26044 | 24047 ft | 409 kts | 38° |
| 2026-04-21 16:43 | -21.45269 | -41.24103 | 24047 ft | 409 kts | 38° |
| 2026-04-21 16:44 | -21.43089 | -41.22178 | 24047 ft | 409 kts | 38° |
| 2026-04-21 16:44 | -21.40897 | -41.20243 | 24047 ft | 409 kts | 38° |
| 2026-04-21 16:44 | -21.38716 | -41.18317 | 24047 ft | 409 kts | 38° |
| 2026-04-21 16:44 | -21.36561 | -41.16414 | 24047 ft | 409 kts | 38° |
| 2026-04-21 16:45 | -21.34419 | -41.14523 | 24047 ft | 409 kts | 38° |
| 2026-04-21 16:45 | -21.32249 | -41.12609 | 24047 ft | 409 kts | 38° |
| 2026-04-21 16:45 | -21.30113 | -41.10726 | 24047 ft | 409 kts | 38° |
| 2026-04-21 16:45 | -21.27914 | -41.08792 | 24047 ft | 409 kts | 38° |
| 2026-04-21 16:46 | -21.25775 | -41.06912 | 24047 ft | 409 kts | 38° |
| 2026-04-21 16:46 | -21.23583 | -41.04986 | 24047 ft | 409 kts | 38° |
| 2026-04-21 16:46 | -21.21430 | -41.03093 | 24047 ft | 409 kts | 38° |
| 2026-04-21 16:46 | -21.19247 | -41.01174 | 24047 ft | 409 kts | 38° |
| 2026-04-21 16:47 | -21.17092 | -40.99280 | 24047 ft | 409 kts | 38° |
| 2026-04-21 16:47 | -21.14891 | -40.97348 | 24047 ft | 409 kts | 39° |
| 2026-04-21 16:47 | -21.12760 | -40.95476 | 24047 ft | 409 kts | 39° |
| 2026-04-21 16:47 | -21.10609 | -40.93608 | 24044 ft | 414 kts | 39° |
| 2026-04-21 16:48 | -21.08395 | -40.91729 | 24043 ft | 410 kts | 39° |
| 2026-04-21 16:48 | -21.06232 | -40.89900 | 24042 ft | 392 kts | 39° |
| 2026-04-21 16:48 | -21.04183 | -40.88171 | 24047 ft | 380 kts | 39° |
| 2026-04-21 16:48 | -21.02115 | -40.86420 | 24051 ft | 380 kts | 39° |
| 2026-04-21 16:49 | -21.00052 | -40.84663 | 24051 ft | 384 kts | 40° |
| 2026-04-21 16:49 | -20.97979 | -40.82888 | 24047 ft | 383 kts | 40° |
| 2026-04-21 16:49 | -20.95911 | -40.81117 | 24045 ft | 379 kts | 40° |
| 2026-04-21 16:49 | -20.93870 | -40.79368 | 24046 ft | 376 kts | 40° |
| 2026-04-21 16:50 | -20.91859 | -40.77634 | 23904 ft | 369 kts | 40° |
| 2026-04-21 16:50 | -20.89905 | -40.75934 | 23461 ft | 366 kts | 40° |
| 2026-04-21 16:50 | -20.87945 | -40.74213 | 22999 ft | 363 kts | 41° |
| 2026-04-21 16:50 | -20.86020 | -40.72513 | 22542 ft | 360 kts | 41° |
| 2026-04-21 16:51 | -20.84134 | -40.70793 | 22082 ft | 357 kts | 45° |
| 2026-04-21 16:51 | -20.82288 | -40.69002 | 21622 ft | 355 kts | 38° |
| 2026-04-21 16:51 | -20.80253 | -40.67616 | 21183 ft | 354 kts | 30° |
| 2026-04-21 16:51 | -20.78079 | -40.66423 | 20725 ft | 352 kts | 26° |
| 2026-04-21 16:52 | -20.75823 | -40.65350 | 20263 ft | 351 kts | 24° |
| 2026-04-21 16:52 | -20.73594 | -40.64345 | 19810 ft | 349 kts | 24° |
| 2026-04-21 16:52 | -20.71398 | -40.63365 | 19369 ft | 347 kts | 24° |
| 2026-04-21 16:52 | -20.69187 | -40.62384 | 18926 ft | 345 kts | 24° |
| 2026-04-21 16:53 | -20.66989 | -40.61413 | 18481 ft | 343 kts | 24° |
| 2026-04-21 16:53 | -20.64783 | -40.60440 | 18037 ft | 341 kts | 24° |
| 2026-04-21 16:53 | -20.62630 | -40.59493 | 17603 ft | 339 kts | 24° |
| 2026-04-21 16:53 | -20.60461 | -40.58538 | 17166 ft | 337 kts | 24° |
| 2026-04-21 16:54 | -20.58309 | -40.57591 | 16728 ft | 336 kts | 24° |
| 2026-04-21 16:54 | -20.56171 | -40.56650 | 16296 ft | 334 kts | 24° |
| 2026-04-21 16:54 | -20.54033 | -40.55711 | 15864 ft | 332 kts | 24° |
| 2026-04-21 16:54 | -20.51891 | -40.54769 | 15427 ft | 331 kts | 24° |
| 2026-04-21 16:55 | -20.49786 | -40.53844 | 14999 ft | 329 kts | 24° |
| 2026-04-21 16:55 | -20.47687 | -40.52922 | 14572 ft | 327 kts | 24° |
| 2026-04-21 16:55 | -20.45581 | -40.51997 | 14141 ft | 326 kts | 24° |
| 2026-04-21 16:55 | -20.43508 | -40.51088 | 13718 ft | 324 kts | 24° |
| 2026-04-21 16:56 | -20.41448 | -40.50183 | 13296 ft | 323 kts | 24° |
| 2026-04-21 16:56 | -20.39370 | -40.49271 | 12869 ft | 321 kts | 24° |
| 2026-04-21 16:56 | -20.37339 | -40.48381 | 12450 ft | 320 kts | 24° |
| 2026-04-21 16:56 | -20.35273 | -40.47536 | 12028 ft | 319 kts | 18° |
| 2026-04-21 16:57 | -20.33113 | -40.46931 | 11439 ft | 324 kts | 15° |
| 2026-04-21 16:57 | -20.30896 | -40.46379 | 10595 ft | 336 kts | 14° |
| 2026-04-21 16:57 | -20.28614 | -40.45819 | 10050 ft | 336 kts | 14° |
| 2026-04-21 16:57 | -20.26363 | -40.45264 | 9825 ft | 327 kts | 14° |
| 2026-04-21 16:58 | -20.24209 | -40.44731 | 9639 ft | 314 kts | 14° |
| 2026-04-21 16:58 | -20.22137 | -40.44216 | 9303 ft | 301 kts | 14° |
| 2026-04-21 16:58 | -20.20141 | -40.43720 | 9007 ft | 289 kts | 15° |
| 2026-04-21 16:58 | -20.18179 | -40.43230 | 8421 ft | 295 kts | 15° |
| 2026-04-21 16:59 | -20.16160 | -40.42726 | 7570 ft | 303 kts | 14° |
| 2026-04-21 16:59 | -20.14114 | -40.42216 | 6940 ft | 301 kts | 15° |
| 2026-04-21 16:59 | -20.12175 | -40.41517 | 6446 ft | 293 kts | 28° |
| 2026-04-21 16:59 | -20.10515 | -40.40350 | 6008 ft | 283 kts | 44° |
| 2026-04-21 17:00 | -20.09228 | -40.38827 | 5596 ft | 272 kts | 59° |
| 2026-04-21 17:00 | -20.08371 | -40.37098 | 5229 ft | 262 kts | 71° |
| 2026-04-21 17:00 | -20.07956 | -40.35895 | 5024 ft | 252 kts | 75° |
| 2026-04-21 17:00 | -20.07278 | -40.33592 | 4652 ft | 235 kts | 76° |
| 2026-04-21 17:01 | -20.06813 | -40.32016 | 4627 ft | 211 kts | 75° |
| 2026-04-21 17:01 | -20.06380 | -40.30590 | 4497 ft | 197 kts | 77° |
| 2026-04-21 17:01 | -20.06108 | -40.29219 | 4368 ft | 182 kts | 87° |
| 2026-04-21 17:01 | -20.06083 | -40.27895 | 4276 ft | 178 kts | 98° |
| 2026-04-21 17:02 | -20.06325 | -40.26612 | 4168 ft | 177 kts | 111° |
| 2026-04-21 17:02 | -20.06849 | -40.25425 | 3960 ft | 177 kts | 123° |
| 2026-04-21 17:02 | -20.07515 | -40.24339 | 3755 ft | 173 kts | 126° |
| 2026-04-21 17:02 | -20.08161 | -40.23294 | 3585 ft | 164 kts | 125° |
| 2026-04-21 17:03 | -20.08767 | -40.22288 | 3395 ft | 159 kts | 126° |
| 2026-04-21 17:03 | -20.09466 | -40.21392 | 3222 ft | 161 kts | 139° |
| 2026-04-21 17:03 | -20.10405 | -40.20724 | 2879 ft | 160 kts | 157° |
| 2026-04-21 17:03 | -20.11461 | -40.20440 | 2585 ft | 156 kts | 174° |
| 2026-04-21 17:04 | -20.12544 | -40.20510 | 2384 ft | 158 kts | 190° |
| 2026-04-21 17:04 | -20.13599 | -40.20866 | 2148 ft | 161 kts | 199° |
| 2026-04-21 17:04 | -20.14585 | -40.21417 | 1867 ft | 160 kts | 209° |
| 2026-04-21 17:04 | -20.15501 | -40.22059 | 1714 ft | 153 kts | 209° |
| 2026-04-21 17:05 | -20.16374 | -40.22639 | 1663 ft | 145 kts | 206° |
| 2026-04-21 17:05 | -20.17247 | -40.23179 | 1664 ft | 146 kts | 206° |
| 2026-04-21 17:05 | -20.18132 | -40.23730 | 1568 ft | 149 kts | 207° |
| 2026-04-21 17:05 | -20.19030 | -40.24305 | 1310 ft | 151 kts | 207° |
| 2026-04-21 17:06 | -20.19917 | -40.24865 | 1085 ft | 147 kts | 206° |
| 2026-04-21 17:06 | -20.20754 | -40.25413 | 816 ft | 137 kts | 213° |
| 2026-04-21 17:06 | -20.21376 | -40.26212 | 621 ft | 146 kts | 239° |
| 2026-04-21 17:06 | -20.21724 | -40.27269 | 854 ft | 158 kts | 246° |
| 2026-04-21 17:07 | -20.22035 | -40.27956 | 1182 ft | 150 kts | 231° |
| 2026-04-21 17:07 | -20.23253 | -40.28569 | 1104 ft | 154 kts | 169° |
| 2026-04-21 17:07 | -20.24313 | -40.28265 | 710 ft | 166 kts | 162° |
| 2026-04-21 17:07 | -20.25418 | -40.27977 | 387 ft | 166 kts | 172° |
| 2026-04-21 17:08 | -20.26528 | -40.27906 | 365 ft | 151 kts | 178° |
| 2026-04-21 17:08 | -20.27567 | -40.27954 | 318 ft | 143 kts | 182° |
| 2026-04-21 17:08 | -20.28505 | -40.27950 | 265 ft | 131 kts | 174° |
| 2026-04-21 17:08 | -20.29414 | -40.27862 | 386 ft | 136 kts | 173° |
| 2026-04-21 17:09 | -20.31245 | -40.27231 | 807 ft | 142 kts | 141° |
| 2026-04-21 17:09 | -20.31888 | -40.26431 | 1074 ft | 145 kts | 123° |
| 2026-04-21 17:09 | -20.32261 | -40.25420 | 1334 ft | 149 kts | 105° |
| 2026-04-21 17:10 | -20.32316 | -40.24311 | 1578 ft | 155 kts | 88° |
| 2026-04-21 17:10 | -20.32061 | -40.23129 | 1854 ft | 172 kts | 77° |
| 2026-04-21 17:10 | -20.31638 | -40.21892 | 1978 ft | 184 kts | 65° |
| 2026-04-21 17:10 | -20.30792 | -40.20882 | 1947 ft | 182 kts | 39° |
| 2026-04-21 17:11 | -20.29666 | -40.20243 | 1982 ft | 188 kts | 23° |
| 2026-04-21 17:11 | -20.28420 | -40.19817 | 1965 ft | 189 kts | 18° |
| 2026-04-21 17:11 | -20.27147 | -40.19476 | 1966 ft | 188 kts | 17° |
| 2026-04-21 17:11 | -20.25973 | -40.18924 | 1969 ft | 185 kts | 33° |
| 2026-04-21 17:12 | -20.24877 | -40.18200 | 1970 ft | 185 kts | 36° |
| 2026-04-21 17:12 | -20.23801 | -40.17464 | 1960 ft | 184 kts | 36° |
| 2026-04-21 17:12 | -20.22738 | -40.16683 | 1972 ft | 184 kts | 40° |
| 2026-04-21 17:12 | -20.21734 | -40.15834 | 1965 ft | 184 kts | 44° |
| 2026-04-21 17:13 | -20.20775 | -40.14947 | 1965 ft | 183 kts | 45° |
| 2026-04-21 17:13 | -20.19824 | -40.14053 | 1966 ft | 183 kts | 45° |
| 2026-04-21 17:13 | -20.18854 | -40.13141 | 1966 ft | 184 kts | 45° |
| 2026-04-21 17:13 | -20.17914 | -40.12258 | 1970 ft | 175 kts | 45° |
| 2026-04-21 17:14 | -20.16931 | -40.11517 | 1958 ft | 177 kts | 24° |
| 2026-04-21 17:14 | -20.15717 | -40.11386 | 1948 ft | 174 kts | 349° |
| 2026-04-21 17:14 | -20.14671 | -40.11959 | 1970 ft | 168 kts | 314° |
| 2026-04-21 17:14 | -20.13939 | -40.12928 | 2001 ft | 169 kts | 302° |
| 2026-04-21 17:15 | -20.13281 | -40.13964 | 1943 ft | 167 kts | 301° |
| 2026-04-21 17:15 | -20.12667 | -40.14979 | 1970 ft | 158 kts | 299° |
| 2026-04-21 17:15 | -20.12084 | -40.15974 | 1964 ft | 158 kts | 299° |
| 2026-04-21 17:15 | -20.11511 | -40.16955 | 1948 ft | 157 kts | 299° |
| 2026-04-21 17:16 | -20.10956 | -40.17971 | 1853 ft | 158 kts | 290° |
| 2026-04-21 17:16 | -20.10697 | -40.19067 | 1614 ft | 153 kts | 263° |
| 2026-04-21 17:16 | -20.11040 | -40.20076 | 1316 ft | 141 kts | 225° |
| 2026-04-21 17:16 | -20.11734 | -40.20768 | 1160 ft | 137 kts | 216° |
| 2026-04-21 17:17 | -20.12443 | -40.21470 | 998 ft | 140 kts | 220° |
| 2026-04-21 17:17 | -20.13114 | -40.22213 | 932 ft | 137 kts | 222° |
| 2026-04-21 17:17 | -20.13774 | -40.22958 | 960 ft | 139 kts | 222° |
| 2026-04-21 17:17 | -20.14438 | -40.23706 | 974 ft | 140 kts | 222° |
| 2026-04-21 17:18 | -20.15110 | -40.24466 | 963 ft | 140 kts | 222° |
| 2026-04-21 17:18 | -20.15774 | -40.25216 | 957 ft | 139 kts | 222° |
| 2026-04-21 17:18 | -20.16442 | -40.25968 | 957 ft | 139 kts | 221° |
| 2026-04-21 17:18 | -20.17153 | -40.26664 | 946 ft | 138 kts | 214° |
| 2026-04-21 17:19 | -20.17953 | -40.27233 | 857 ft | 137 kts | 205° |
| 2026-04-21 17:19 | -20.18810 | -40.27644 | 725 ft | 135 kts | 195° |
| 2026-04-21 17:19 | -20.19715 | -40.27854 | 638 ft | 131 kts | 182° |
| 2026-04-21 17:19 | -20.20617 | -40.27786 | 669 ft | 130 kts | 161° |
| 2026-04-21 17:20 | -20.21423 | -40.27365 | 847 ft | 130 kts | 150° |
| 2026-04-21 17:20 | -20.22206 | -40.26899 | 1049 ft | 131 kts | 155° |
| 2026-04-21 17:20 | -20.23060 | -40.26531 | 1014 ft | 135 kts | 171° |
| 2026-04-21 17:20 | -20.23943 | -40.26756 | 688 ft | 138 kts | 219° |
| 2026-04-21 17:21 | -20.24484 | -40.27596 | 400 ft | 138 kts | 236° |
| 2026-04-21 17:21 | -20.25145 | -40.28310 | 68 ft | 133 kts | 205° |
| 2026-04-21 17:21 | -20.25879 | -40.28744 | 7 ft | 94 kts | 207° |
| 2026-04-21 17:21 | -20.26237 | -40.28967 | 8 ft | 40 kts | 210° |
| 2026-04-21 17:22 | -20.26347 | -40.29038 | 9 ft | 12 kts | 209° |
| 2026-04-21 17:22 | -20.26403 | -40.29110 | 11 ft | 6 kts | 296° |
| 2026-04-21 17:22 | -20.26366 | -40.29136 | 11 ft | 5 kts | 336° |
| 2026-04-21 17:22 | -20.26338 | -40.29142 | 11 ft | 3 kts | 352° |
| 2026-04-21 17:23 | -20.26318 | -40.29145 | 11 ft | 2 kts | 349° |
| 2026-04-21 17:23 | -20.26304 | -40.29148 | 11 ft | 1 kts | 349° |
| 2026-04-21 17:23 | -20.26294 | -40.29150 | 11 ft | 1 kts | 349° |
| 2026-04-21 17:23 | -20.26283 | -40.29152 | 11 ft | 1 kts | 349° |
| 2026-04-21 17:24 | -20.26263 | -40.29154 | 11 ft | 3 kts | 355° |
| 2026-04-21 17:24 | -20.26240 | -40.29154 | 11 ft | 2 kts | 6° |
| 2026-04-21 17:24 | -20.26226 | -40.29149 | 11 ft | 2 kts | 26° |
| 2026-04-21 17:24 | -20.26206 | -40.29137 | 11 ft | 5 kts | 31° |
| 2026-04-21 17:25 | -20.26167 | -40.29110 | 10 ft | 5 kts | 33° |
| 2026-04-21 17:25 | -20.26136 | -40.29089 | 10 ft | 4 kts | 33° |
| 2026-04-21 17:25 | -20.26108 | -40.29070 | 10 ft | 6 kts | 32° |
| 2026-04-21 17:25 | -20.26067 | -40.29043 | 10 ft | 6 kts | 32° |
| 2026-04-21 17:26 | -20.26037 | -40.29023 | 10 ft | 3 kts | 32° |
| 2026-04-21 17:26 | -20.26019 | -40.29011 | 10 ft | 4 kts | 32° |
| 2026-04-21 17:26 | -20.25994 | -40.28994 | 10 ft | 4 kts | 32° |
| 2026-04-21 17:26 | -20.25978 | -40.28991 | 11 ft | 1 kts | 353° |
| 2026-04-21 17:27 | -20.25963 | -40.29001 | 11 ft | 2 kts | 319° |
| 2026-04-21 17:27 | -20.25960 | -40.29005 | 11 ft | 0 kts | 306° |
| 2026-04-21 17:27 | -20.25958 | -40.29006 | 11 ft | 0 kts | 309° |
| 2026-04-21 17:27 | -20.25956 | -40.29009 | 11 ft | 0 kts | 318° |
| 2026-04-21 17:28 | -20.25955 | -40.29011 | 11 ft | 0 kts | 304° |
| 2026-04-21 17:28 | -20.25953 | -40.29015 | 11 ft | 0 kts | 304° |